Time;durP1;ratioP1;P1;durP2;ratioP2;P2;SDS_P1;SDS_P2;PMS_P1;PMS_P2;Temp;Humidity;BMP_temperature;BMP_pressure;BME280_temperature;BME280_humidity;BME280_pressure;Samples;Min_cycle;Max_cycle;Signal;HPM_P1;HPM_P2
2021/01/29 00:02:12;;;;;;;235.70;218.98;;;;;;;;;;5015016;28;20036;-79
2021/01/29 00:04:38;;;;;;;215.40;198.88;;;;;;;;;;5019339;28;20084;-79
2021/01/29 00:07:05;;;;;;;225.10;208.20;;;;;;;;;;5039284;28;20038;-80
2021/01/29 00:09:31;;;;;;;232.05;214.93;;;;;;;;;;5046233;28;20009;-79
2021/01/29 00:11:56;;;;;;;220.68;204.02;;;;;;;;;;5045260;28;20061;-80
2021/01/29 00:14:22;;;;;;;220.98;204.55;;;;;;;;;;5045918;28;20082;-80
2021/01/29 00:16:47;;;;;;;220.60;203.90;;;;;;;;;;5049314;28;20097;-84
2021/01/29 00:19:13;;;;;;;248.20;230.30;;;;;;;;;;5048806;28;20036;-79
2021/01/29 00:21:38;;;;;;;266.73;247.68;;;;;;;;;;5047649;28;20068;-79
2021/01/29 00:24:03;;;;;;;222.13;205.93;;;;;;;;;;5044103;28;20017;-80
2021/01/29 00:26:29;;;;;;;235.45;218.85;;;;;;;;;;5054127;28;20057;-79
2021/01/29 00:28:54;;;;;;;236.75;219.35;;;;;;;;;;5051194;28;20041;-80
2021/01/29 00:31:20;;;;;;;234.50;216.65;;;;;;;;;;5051950;28;20018;-79
2021/01/29 00:33:45;;;;;;;234.68;216.52;;;;;;;;;;5053630;28;20045;-79
2021/01/29 00:36:10;;;;;;;237.88;219.73;;;;;;;;;;5048973;28;20040;-79
2021/01/29 00:38:36;;;;;;;232.98;214.93;;;;;;;;;;5038636;28;20033;-79
2021/01/29 00:41:01;;;;;;;271.73;251.38;;;;;;;;;;5034886;28;20030;-79
2021/01/29 00:43:27;;;;;;;238.98;220.20;;;;;;;;;;5040904;28;20021;-79
2021/01/29 00:45:53;;;;;;;233.55;215.68;;;;;;;;;;5026303;28;20164;-80
2021/01/29 00:48:18;;;;;;;246.40;226.77;;;;;;;;;;5021488;28;20022;-78
2021/01/29 00:50:44;;;;;;;260.15;240.02;;;;;;;;;;5019946;28;20030;-78
2021/01/29 00:53:11;;;;;;;256.05;235.55;;;;;;;;;;5025501;28;20017;-78
2021/01/29 00:55:37;;;;;;;253.70;233.25;;;;;;;;;;5026346;28;20025;-77
2021/01/29 00:58:08;;;;;;;250.73;230.77;;;;;;;;;;5022316;28;20046;-77
2021/01/29 01:00:52;;;;;;;246.02;226.25;;;;;;;;;;5024764;28;20052;-77
2021/01/29 01:03:24;;;;;;;1121.13;611.42;;;;;;;;;;5021523;28;20025;-78
2021/01/29 01:05:49;;;;;;;249.00;229.35;;;;;;;;;;5019834;28;20512;-78
2021/01/29 01:08:27;;;;;;;245.05;226.18;;;;;;;;;;5022417;28;20037;-78
2021/01/29 01:11:21;;;;;;;249.05;229.68;;;;;;;;;;5035863;28;20026;-77
2021/01/29 01:14:06;;;;;;;248.35;229.05;;;;;;;;;;5025595;28;20064;-78
2021/01/29 01:16:37;;;;;;;249.65;229.85;;;;;;;;;;5024632;28;20026;-78
2021/01/29 01:19:09;;;;;;;256.02;235.63;;;;;;;;;;5019123;28;20106;-78
2021/01/29 01:21:50;;;;;;;273.38;252.15;;;;;;;;;;5015402;28;20106;-78
2021/01/29 01:24:39;;;;;;;258.38;237.77;;;;;;;;;;5014965;28;20099;-78
2021/01/29 01:27:06;;;;;;;255.68;235.48;;;;;;;;;;5018822;28;20072;-78
2021/01/29 01:29:52;;;;;;;254.73;234.18;;;;;;;;;;5017448;28;20021;-78
2021/01/29 01:32:17;;;;;;;259.33;238.70;;;;;;;;;;5022097;28;20034;-78
2021/01/29 01:35:06;;;;;;;250.93;230.82;;;;;;;;;;5019998;28;20026;-78
2021/01/29 01:37:34;;;;;;;1999.90;999.90;;;;;;;;;;5017446;28;20634;-78
2021/01/29 01:40:17;;;;;;;258.13;237.48;;;;;;;;;;5018940;28;20125;-78
2021/01/29 01:42:43;;;;;;;260.40;239.95;;;;;;;;;;5024852;28;20510;-78
2021/01/29 01:45:26;;;;;;;1999.90;999.90;;;;;;;;;;5027469;28;20100;-77
2021/01/29 01:48:02;;;;;;;250.30;229.77;;;;;;;;;;5025359;28;20109;-78
2021/01/29 01:50:58;;;;;;;255.68;235.48;;;;;;;;;;5019565;28;20295;-78
2021/01/29 01:53:27;;;;;;;1135.40;624.60;;;;;;;;;;5021788;28;20061;-78
2021/01/29 01:56:02;;;;;;;1999.90;999.90;;;;;;;;;;5022026;28;20029;-78
2021/01/29 01:58:50;;;;;;;1999.90;999.90;;;;;;;;;;5018207;28;20684;-78
2021/01/29 02:01:39;;;;;;;703.03;436.75;;;;;;;;;;5016610;28;20030;-78
2021/01/29 02:04:28;;;;;;;263.67;242.85;;;;;;;;;;5018054;28;20559;-78
2021/01/29 02:07:32;;;;;;;260.20;239.82;;;;;;;;;;5028828;28;20124;-78
2021/01/29 02:10:36;;;;;;;698.63;432.88;;;;;;;;;;5002288;28;20042;-79
2021/01/29 02:13:04;;;;;;;1999.90;999.90;;;;;;;;;;4997727;28;20042;-79
2021/01/29 02:15:35;;;;;;;1999.90;999.90;;;;;;;;;;5014495;28;20052;-79
2021/01/29 02:18:01;;;;;;;261.60;240.98;;;;;;;;;;5023535;28;20504;-78
2021/01/29 02:20:39;;;;;;;1999.90;999.90;;;;;;;;;;5019145;28;20516;-78
2021/01/29 02:23:34;;;;;;;264.33;243.57;;;;;;;;;;5028671;28;20033;-78
2021/01/29 02:26:38;;;;;;;264.13;242.60;;;;;;;;;;5028709;28;20045;-79
2021/01/29 02:29:14;;;;;;;258.23;237.82;;;;;;;;;;5032009;28;20138;-79
2021/01/29 02:31:49;;;;;;;256.55;236.35;;;;;;;;;;5022368;28;20036;-79
2021/01/29 02:34:33;;;;;;;275.70;254.02;;;;;;;;;;5026391;28;20029;-79
2021/01/29 02:37:41;;;;;;;257.15;236.32;;;;;;;;;;5022587;28;20041;-78
2021/01/29 02:40:44;;;;;;;260.60;239.98;;;;;;;;;;4998468;28;20038;-78
2021/01/29 02:43:30;;;;;;;252.43;232.60;;;;;;;;;;5022523;28;20144;-79
2021/01/29 02:46:17;;;;;;;264.80;244.10;;;;;;;;;;5019036;28;20044;-78
2021/01/29 02:48:58;;;;;;;257.67;237.70;;;;;;;;;;5024355;28;20035;-79
2021/01/29 02:51:42;;;;;;;250.73;231.25;;;;;;;;;;5025673;28;20045;-79
2021/01/29 02:55:05;;;;;;;251.45;231.88;;;;;;;;;;5022780;28;20877;-78
2021/01/29 02:58:15;;;;;;;251.50;232.20;;;;;;;;;;4989957;28;20077;-79
2021/01/29 03:01:05;;;;;;;247.65;228.38;;;;;;;;;;4977377;28;20038;-78
2021/01/29 03:03:39;;;;;;;263.25;243.20;;;;;;;;;;5021828;28;20062;-78
2021/01/29 03:06:34;;;;;;;262.73;242.52;;;;;;;;;;5015664;28;20030;-78
2021/01/29 03:09:14;;;;;;;268.45;247.95;;;;;;;;;;5017980;28;20481;-78
2021/01/29 03:12:18;;;;;;;261.75;242.40;;;;;;;;;;5021157;28;20028;-78
2021/01/29 03:15:20;;;;;;;251.10;232.25;;;;;;;;;;5027195;28;20107;-78
2021/01/29 03:18:10;;;;;;;237.82;219.90;;;;;;;;;;5019970;28;20473;-78
2021/01/29 03:21:00;;;;;;;248.15;229.55;;;;;;;;;;5016181;28;20069;-78
2021/01/29 03:23:48;;;;;;;254.65;236.23;;;;;;;;;;5024104;28;20045;-78
2021/01/29 03:26:36;;;;;;;239.95;222.18;;;;;;;;;;5021245;28;20049;-79
2021/01/29 03:29:21;;;;;;;235.13;217.88;;;;;;;;;;5035803;28;20048;-79
2021/01/29 03:32:06;;;;;;;238.85;221.02;;;;;;;;;;5017525;28;20572;-78
2021/01/29 03:35:04;;;;;;;247.18;228.85;;;;;;;;;;5029655;28;20464;-78
2021/01/29 03:37:59;;;;;;;249.40;230.55;;;;;;;;;;5034174;28;20099;-78
2021/01/29 03:40:46;;;;;;;234.93;217.52;;;;;;;;;;5018641;28;20092;-78
2021/01/29 03:43:34;;;;;;;257.05;238.32;;;;;;;;;;5047173;28;20029;-78
2021/01/29 03:46:24;;;;;;;244.10;226.02;;;;;;;;;;5042948;28;20033;-77
2021/01/29 03:49:15;;;;;;;241.10;223.00;;;;;;;;;;5046796;28;20116;-78
2021/01/29 03:52:07;;;;;;;253.77;234.32;;;;;;;;;;5028337;28;20052;-78
2021/01/29 03:55:00;;;;;;;262.73;242.77;;;;;;;;;;5039248;28;20044;-78
2021/01/29 03:57:53;;;;;;;257.50;238.02;;;;;;;;;;5023022;28;20096;-78
2021/01/29 04:01:00;;;;;;;251.45;231.93;;;;;;;;;;5039050;28;20159;-78
2021/01/29 04:03:59;;;;;;;250.15;231.35;;;;;;;;;;5045099;28;20067;-78
2021/01/29 04:06:45;;;;;;;249.63;230.82;;;;;;;;;;5025327;28;20516;-78
2021/01/29 04:09:46;;;;;;;256.25;236.55;;;;;;;;;;5003446;28;20030;-77
2021/01/29 04:12:41;;;;;;;267.40;247.20;;;;;;;;;;5019930;28;20046;-78
2021/01/29 04:15:28;;;;;;;271.70;250.90;;;;;;;;;;5018715;28;20034;-78
2021/01/29 04:18:01;;;;;;;273.98;253.65;;;;;;;;;;5035715;28;20033;-77
2021/01/29 04:20:40;;;;;;;284.38;262.45;;;;;;;;;;5041415;28;20034;-78
2021/01/29 04:23:08;;;;;;;289.80;268.13;;;;;;;;;;5032099;28;20069;-78
2021/01/29 04:25:36;;;;;;;270.58;250.10;;;;;;;;;;5020936;28;20366;-78
2021/01/29 04:28:04;;;;;;;270.73;250.13;;;;;;;;;;5019429;28;20438;-78
2021/01/29 04:30:30;;;;;;;279.33;257.77;;;;;;;;;;5022111;28;20022;-78
2021/01/29 04:33:02;;;;;;;271.45;250.35;;;;;;;;;;5015488;28;20038;-78
2021/01/29 04:35:29;;;;;;;285.52;263.65;;;;;;;;;;5029022;28;20095;-78
2021/01/29 04:38:11;;;;;;;275.95;254.15;;;;;;;;;;5023137;28;20037;-78
2021/01/29 04:40:49;;;;;;;289.80;266.80;;;;;;;;;;5021549;28;20073;-78
2021/01/29 04:43:24;;;;;;;285.35;262.88;;;;;;;;;;5021250;28;20116;-78
2021/01/29 04:45:54;;;;;;;274.40;252.88;;;;;;;;;;5017514;28;20047;-78
2021/01/29 04:48:26;;;;;;;275.30;253.20;;;;;;;;;;5019830;28;20081;-78
2021/01/29 04:51:10;;;;;;;289.45;266.65;;;;;;;;;;5026012;28;20026;-78
2021/01/29 04:53:54;;;;;;;292.95;269.70;;;;;;;;;;5021866;28;20034;-78
2021/01/29 04:56:39;;;;;;;282.63;260.02;;;;;;;;;;5027159;28;20517;-78
2021/01/29 04:59:19;;;;;;;281.45;258.95;;;;;;;;;;5023716;28;20099;-78
2021/01/29 05:02:38;;;;;;;288.45;265.05;;;;;;;;;;5014267;28;20065;-78
2021/01/29 05:05:40;;;;;;;288.60;265.30;;;;;;;;;;5027103;28;20163;-78
2021/01/29 05:08:43;;;;;;;284.60;261.60;;;;;;;;;;5027355;28;20101;-78
2021/01/29 05:11:32;;;;;;;289.40;265.98;;;;;;;;;;5017102;28;20588;-78
2021/01/29 05:14:13;;;;;;;716.15;448.60;;;;;;;;;;5030451;28;20127;-78
2021/01/29 05:16:42;;;;;;;290.73;267.25;;;;;;;;;;5030005;28;20125;-78
2021/01/29 05:19:11;;;;;;;298.45;274.15;;;;;;;;;;5011900;28;20095;-78
2021/01/29 05:21:45;;;;;;;290.55;267.00;;;;;;;;;;5013679;28;20381;-78
2021/01/29 05:24:16;;;;;;;289.38;266.00;;;;;;;;;;5018846;28;20034;-78
2021/01/29 05:26:52;;;;;;;299.05;274.45;;;;;;;;;;5030653;28;20049;-78
2021/01/29 05:29:20;;;;;;;283.45;260.05;;;;;;;;;;5021537;28;20174;-78
2021/01/29 05:31:50;;;;;;;287.60;262.80;;;;;;;;;;5020073;28;20071;-78
2021/01/29 05:34:19;;;;;;;318.30;292.67;;;;;;;;;;5024412;28;20044;-78
2021/01/29 05:36:45;;;;;;;1999.90;999.90;;;;;;;;;;5018423;28;20022;-79
2021/01/29 05:39:17;;;;;;;1999.90;999.90;;;;;;;;;;5022060;28;20041;-78
2021/01/29 05:41:43;;;;;;;1999.90;999.90;;;;;;;;;;5026926;28;20059;-78
2021/01/29 05:44:27;;;;;;;1999.90;999.90;;;;;;;;;;5026394;28;20025;-78
2021/01/29 05:47:02;;;;;;;1999.90;999.90;;;;;;;;;;5020608;28;20052;-78
2021/01/29 05:49:46;;;;;;;1999.90;999.90;;;;;;;;;;5018647;28;20041;-81
2021/01/29 05:52:24;;;;;;;1999.90;999.90;;;;;;;;;;5016588;28;20061;-76
2021/01/29 05:55:05;;;;;;;1999.90;999.90;;;;;;;;;;5018222;28;20030;-83
2021/01/29 05:57:31;;;;;;;1999.90;999.90;;;;;;;;;;5017518;28;20031;-84
2021/01/29 06:00:10;;;;;;;1999.90;999.90;;;;;;;;;;5018290;28;20144;-84
2021/01/29 06:02:57;;;;;;;1999.90;999.90;;;;;;;;;;5027443;28;20048;-84
2021/01/29 06:05:39;;;;;;;1999.90;999.90;;;;;;;;;;5039970;28;20040;-85
2021/01/29 06:08:07;;;;;;;1999.90;999.90;;;;;;;;;;5020507;28;20033;-83
2021/01/29 06:10:42;;;;;;;1999.90;999.90;;;;;;;;;;5026525;28;20014;-84
2021/01/29 06:13:26;;;;;;;1999.90;999.90;;;;;;;;;;5022406;28;20028;-84
2021/01/29 06:15:52;;;;;;;1999.90;999.90;;;;;;;;;;5019568;28;20485;-82
2021/01/29 06:18:37;;;;;;;275.50;255.10;;;;;;;;;;5026992;28;20052;-78
2021/01/29 06:21:29;;;;;;;1999.90;999.90;;;;;;;;;;5028806;28;20040;-79
2021/01/29 06:24:07;;;;;;;1999.90;999.90;;;;;;;;;;5026532;28;20033;-80
2021/01/29 06:26:51;;;;;;;1999.90;999.90;;;;;;;;;;5018588;28;20037;-80
2021/01/29 06:29:25;;;;;;;256.10;237.57;;;;;;;;;;5016906;28;20057;-79
2021/01/29 06:32:09;;;;;;;687.85;423.90;;;;;;;;;;5018220;28;20424;-79
2021/01/29 06:34:53;;;;;;;1999.90;999.90;;;;;;;;;;5016237;28;20021;-80
2021/01/29 06:37:25;;;;;;;1999.90;999.90;;;;;;;;;;5023689;28;20029;-81
2021/01/29 06:40:09;;;;;;;259.15;240.00;;;;;;;;;;5023601;28;20041;-86
2021/01/29 06:42:54;;;;;;;1999.90;999.90;;;;;;;;;;5028396;28;20055;-90
2021/01/29 06:45:23;;;;;;;1999.90;999.90;;;;;;;;;;5026272;28;19998;-94
2021/01/29 06:47:52;;;;;;;1999.90;999.90;;;;;;;;;;5059847;28;20001;-88
2021/01/29 06:50:20;;;;;;;238.35;219.35;;;;;;;;;;5042759;28;20017;-84
2021/01/29 06:52:48;;;;;;;234.60;215.55;;;;;;;;;;5043727;28;20014;-88
2021/01/29 06:55:33;;;;;;;257.25;236.35;;;;;;;;;;5059079;28;20060;-86
2021/01/29 06:58:05;;;;;;;279.73;257.63;;;;;;;;;;5055064;28;20056;-80
2021/01/29 07:00:31;;;;;;;252.07;232.18;;;;;;;;;;5058565;28;20061;-87
2021/01/29 07:03:16;;;;;;;253.05;232.93;;;;;;;;;;5048621;28;20104;-85
2021/01/29 07:05:42;;;;;;;248.75;229.18;;;;;;;;;;5036555;28;20085;-83
2021/01/29 07:08:17;;;;;;;248.60;228.88;;;;;;;;;;5041927;28;20021;-83
2021/01/29 07:11:05;;;;;;;245.93;225.95;;;;;;;;;;5045281;28;20031;-83
2021/01/29 07:13:36;;;;;;;251.70;231.50;;;;;;;;;;5043342;28;20093;-83
2021/01/29 07:16:20;;;;;;;245.80;225.90;;;;;;;;;;5045371;28;20025;-83
2021/01/29 07:19:10;;;;;;;245.35;225.75;;;;;;;;;;5030790;28;20706;-83
2021/01/29 07:21:39;;;;;;;261.50;240.88;;;;;;;;;;5048787;28;20402;-82
2021/01/29 07:24:20;;;;;;;250.07;230.13;;;;;;;;;;5024984;28;20389;-84
2021/01/29 07:26:49;;;;;;;203.60;187.30;;;;;;;;;;5027717;28;20104;-83
2021/01/29 07:29:33;;;;;;;221.73;204.30;;;;;;;;;;5031519;28;20077;-83
2021/01/29 07:32:10;;;;;;;227.70;209.70;;;;;;;;;;5018669;28;20473;-83
2021/01/29 07:34:57;;;;;;;219.23;201.70;;;;;;;;;;5020906;28;20508;-83
2021/01/29 07:37:41;;;;;;;220.80;203.10;;;;;;;;;;5023501;28;20045;-83
2021/01/29 07:40:13;;;;;;;216.20;199.30;;;;;;;;;;5027137;28;20039;-83
2021/01/29 07:42:45;;;;;;;218.57;201.27;;;;;;;;;;5028572;28;20038;-84
2021/01/29 07:45:20;;;;;;;220.38;203.13;;;;;;;;;;5026294;28;20053;-83
2021/01/29 07:47:52;;;;;;;228.32;210.48;;;;;;;;;;5026823;28;20040;-82
2021/01/29 07:50:27;;;;;;;221.02;203.80;;;;;;;;;;5017638;28;20057;-83
2021/01/29 07:53:02;;;;;;;219.77;202.68;;;;;;;;;;5023555;28;20031;-82
2021/01/29 07:55:51;;;;;;;222.30;204.48;;;;;;;;;;5021290;28;20029;-81
2021/01/29 07:58:48;;;;;;;216.88;199.57;;;;;;;;;;5014988;28;20050;-75
2021/01/29 08:01:25;;;;;;;222.82;205.75;;;;;;;;;;5013957;28;20038;-83
2021/01/29 08:03:54;;;;;;;227.38;210.00;;;;;;;;;;5020386;28;20030;-82
2021/01/29 08:06:48;;;;;;;211.98;195.98;;;;;;;;;;5033593;28;20105;-83
2021/01/29 08:09:14;;;;;;;218.27;201.80;;;;;;;;;;5026167;28;20077;-82
2021/01/29 08:11:41;;;;;;;221.88;205.07;;;;;;;;;;5023905;28;20064;-81
2021/01/29 08:14:25;;;;;;;221.40;204.75;;;;;;;;;;5028312;28;20030;-83
2021/01/29 08:16:53;;;;;;;211.63;195.43;;;;;;;;;;5029568;28;20417;-82
2021/01/29 08:19:27;;;;;;;211.82;195.50;;;;;;;;;;5022221;28;20088;-82
2021/01/29 08:22:11;;;;;;;222.33;204.97;;;;;;;;;;5026369;28;20108;-77
2021/01/29 08:24:43;;;;;;;208.30;192.07;;;;;;;;;;5023341;28;20377;-78
2021/01/29 08:27:27;;;;;;;198.68;182.85;;;;;;;;;;5025697;28;20079;-78
2021/01/29 08:30:21;;;;;;;216.27;199.38;;;;;;;;;;5025192;28;20115;-78
2021/01/29 08:33:28;;;;;;;209.25;193.05;;;;;;;;;;5028900;28;20039;-81
2021/01/29 08:36:12;;;;;;;194.45;179.80;;;;;;;;;;5029373;28;20480;-78
2021/01/29 08:38:56;;;;;;;208.70;192.70;;;;;;;;;;5034347;28;20490;-78
2021/01/29 08:41:28;;;;;;;206.85;191.20;;;;;;;;;;5023374;28;20037;-79
2021/01/29 08:43:56;;;;;;;197.88;183.30;;;;;;;;;;5031123;28;20125;-79
2021/01/29 08:46:35;;;;;;;203.43;188.05;;;;;;;;;;5026758;28;20018;-78
2021/01/29 08:49:27;;;;;;;221.35;205.20;;;;;;;;;;5028127;28;20038;-78
2021/01/29 08:52:11;;;;;;;214.15;197.95;;;;;;;;;;5036151;28;20026;-78
2021/01/29 08:54:44;;;;;;;213.00;197.75;;;;;;;;;;5024173;28;20033;-77
2021/01/29 08:57:28;;;;;;;198.48;183.90;;;;;;;;;;5028715;28;20022;-78
2021/01/29 08:59:59;;;;;;;198.50;183.90;;;;;;;;;;5029993;28;20048;-79
2021/01/29 09:02:33;;;;;;;195.75;181.32;;;;;;;;;;5027427;28;20032;-78
2021/01/29 09:05:01;;;;;;;196.77;182.43;;;;;;;;;;5022832;28;20528;-78
2021/01/29 09:07:31;;;;;;;202.73;187.90;;;;;;;;;;5032631;28;20029;-79
2021/01/29 09:10:07;;;;;;;211.30;196.02;;;;;;;;;;5022674;28;20036;-79
2021/01/29 09:12:34;;;;;;;217.05;201.52;;;;;;;;;;5025396;28;20025;-79
2021/01/29 09:15:03;;;;;;;220.13;204.27;;;;;;;;;;5026737;28;20091;-78
2021/01/29 09:17:36;;;;;;;232.57;216.20;;;;;;;;;;5029231;28;20030;-78
2021/01/29 09:20:05;;;;;;;220.73;204.50;;;;;;;;;;5030401;28;20033;-79
2021/01/29 09:22:44;;;;;;;226.90;210.02;;;;;;;;;;5020031;28;20014;-77
2021/01/29 09:25:28;;;;;;;229.30;212.60;;;;;;;;;;5037403;28;20032;-78
2021/01/29 09:28:01;;;;;;;239.48;222.30;;;;;;;;;;5019003;28;20026;-78
2021/01/29 09:30:29;;;;;;;216.20;200.48;;;;;;;;;;5025588;28;20134;-78
2021/01/29 09:32:55;;;;;;;216.60;200.60;;;;;;;;;;5028061;28;20029;-73
2021/01/29 09:35:26;;;;;;;217.88;201.77;;;;;;;;;;5031367;28;20115;-78
2021/01/29 09:37:53;;;;;;;216.70;200.48;;;;;;;;;;5025247;28;20652;-78
2021/01/29 09:40:45;;;;;;;220.95;204.60;;;;;;;;;;5022758;28;20024;-78
2021/01/29 09:43:14;;;;;;;221.45;205.05;;;;;;;;;;5023167;28;20801;-77
2021/01/29 09:45:41;;;;;;;212.20;196.23;;;;;;;;;;5022251;28;20037;-79
2021/01/29 09:48:10;;;;;;;211.02;195.23;;;;;;;;;;5019111;28;20032;-77
2021/01/29 09:50:36;;;;;;;215.32;199.27;;;;;;;;;;5023022;28;20512;-77
2021/01/29 09:53:04;;;;;;;213.95;197.75;;;;;;;;;;5025382;28;20132;-78
2021/01/29 09:55:32;;;;;;;223.50;207.35;;;;;;;;;;5023857;28;20504;-77
2021/01/29 09:57:58;;;;;;;205.88;190.57;;;;;;;;;;5020516;28;20036;-78
2021/01/29 10:00:26;;;;;;;209.38;193.27;;;;;;;;;;5021894;28;20025;-78
2021/01/29 10:03:12;;;;;;;211.80;195.77;;;;;;;;;;5023086;28;20040;-78
2021/01/29 10:05:48;;;;;;;209.45;193.85;;;;;;;;;;5024450;28;20038;-78
2021/01/29 10:08:17;;;;;;;211.20;195.30;;;;;;;;;;5020782;28;20447;-78
2021/01/29 10:11:03;;;;;;;200.35;185.05;;;;;;;;;;5020637;28;20080;-78
2021/01/29 10:13:28;;;;;;;207.05;191.75;;;;;;;;;;5020959;28;20390;-78
2021/01/29 10:16:12;;;;;;;211.85;196.05;;;;;;;;;;5012282;28;20060;-77
2021/01/29 10:18:39;;;;;;;202.07;186.85;;;;;;;;;;5014834;28;20590;-78
2021/01/29 10:21:10;;;;;;;197.40;182.63;;;;;;;;;;5016012;28;20026;-78
2021/01/29 10:23:35;;;;;;;198.88;183.98;;;;;;;;;;5020197;28;20462;-78
2021/01/29 10:26:19;;;;;;;193.40;179.10;;;;;;;;;;5015602;28;20021;-78
2021/01/29 10:28:54;;;;;;;201.27;186.05;;;;;;;;;;5022328;28;20069;-80
2021/01/29 10:31:22;;;;;;;202.93;187.57;;;;;;;;;;5020468;28;20026;-79
2021/01/29 10:33:49;;;;;;;204.82;189.63;;;;;;;;;;5025583;28;20056;-80
2021/01/29 10:36:33;;;;;;;190.23;176.02;;;;;;;;;;5019211;28;20033;-80
2021/01/29 10:39:04;;;;;;;198.02;183.45;;;;;;;;;;5026841;28;20040;-79
2021/01/29 10:41:39;;;;;;;196.48;181.93;;;;;;;;;;5033460;28;20049;-92
2021/01/29 10:44:16;;;;;;;208.00;192.90;;;;;;;;;;5045113;28;20052;-92
2021/01/29 10:47:02;;;;;;;198.75;183.95;;;;;;;;;;5036814;28;20413;-91
2021/01/29 10:49:30;;;;;;;192.45;178.20;;;;;;;;;;5045743;28;20073;-93
2021/01/29 10:52:14;;;;;;;179.90;166.30;;;;;;;;;;5055984;28;20104;-92
2021/01/29 10:54:40;;;;;;;191.38;177.27;;;;;;;;;;5045078;28;20093;-91
2021/01/29 10:57:16;;;;;;;196.95;182.30;;;;;;;;;;5055093;28;20025;-89
2021/01/29 10:59:46;;;;;;;197.18;182.77;;;;;;;;;;5041367;28;20053;-92
2021/01/29 11:02:20;;;;;;;192.05;178.35;;;;;;;;;;5030016;28;20021;-91
2021/01/29 11:04:46;;;;;;;187.80;173.55;;;;;;;;;;5044674;28;20043;-93
2021/01/29 11:07:21;;;;;;;178.73;165.43;;;;;;;;;;5026517;28;20077;-92
2021/01/29 11:09:53;;;;;;;157.70;146.20;;;;;;;;;;5027564;28;20520;-91
2021/01/29 11:12:24;;;;;;;151.77;140.10;;;;;;;;;;5034294;28;20021;-89
2021/01/29 11:14:56;;;;;;;146.05;135.57;;;;;;;;;;5048420;28;20083;-91
2021/01/29 11:17:42;;;;;;;145.48;134.95;;;;;;;;;;5056570;28;20192;-92
2021/01/29 11:20:14;;;;;;;135.85;126.18;;;;;;;;;;5050385;28;20132;-90
2021/01/29 11:22:48;;;;;;;149.35;138.57;;;;;;;;;;5042886;28;20044;-92
2021/01/29 11:25:30;;;;;;;133.20;124.20;;;;;;;;;;5050218;28;20033;-92
2021/01/29 11:28:01;;;;;;;142.80;132.57;;;;;;;;;;5046775;28;20045;-91
2021/01/29 11:30:35;;;;;;;141.00;131.35;;;;;;;;;;5053277;28;20073;-91
2021/01/29 11:33:02;;;;;;;135.45;126.18;;;;;;;;;;5037464;28;20013;-91
2021/01/29 11:35:43;;;;;;;128.30;119.70;;;;;;;;;;5050624;28;20068;-91
2021/01/29 11:38:24;;;;;;;118.90;111.00;;;;;;;;;;5058362;28;20033;-92
2021/01/29 11:40:57;;;;;;;132.30;123.47;;;;;;;;;;5039443;28;20033;-91
2021/01/29 11:43:28;;;;;;;153.50;142.45;;;;;;;;;;5056807;28;20048;-91
2021/01/29 11:45:57;;;;;;;170.25;158.80;;;;;;;;;;5030656;28;20113;-91
2021/01/29 11:48:30;;;;;;;146.35;135.85;;;;;;;;;;5035377;28;20030;-92
2021/01/29 11:50:59;;;;;;;160.15;149.13;;;;;;;;;;5047300;28;20033;-92
2021/01/29 11:53:29;;;;;;;151.30;141.20;;;;;;;;;;5043903;28;20014;-91
2021/01/29 11:56:18;;;;;;;130.13;121.45;;;;;;;;;;5041357;28;20033;-93
2021/01/29 11:58:43;;;;;;;146.90;137.00;;;;;;;;;;5027779;28;20096;-93
2021/01/29 12:01:44;;;;;;;160.20;149.18;;;;;;;;;;5056525;28;20025;-93
2021/01/29 12:04:26;;;;;;;150.88;140.30;;;;;;;;;;4998879;28;20038;-91
2021/01/29 12:06:57;;;;;;;155.70;144.98;;;;;;;;;;5043218;28;20052;-91
2021/01/29 12:09:42;;;;;;;165.27;153.90;;;;;;;;;;5061709;28;20110;-92
2021/01/29 12:12:10;;;;;;;166.30;154.90;;;;;;;;;;5049495;28;20035;-91
2021/01/29 12:14:49;;;;;;;177.10;164.63;;;;;;;;;;5054920;28;20013;-91
2021/01/29 12:17:18;;;;;;;176.82;164.27;;;;;;;;;;5052639;28;20032;-90
2021/01/29 12:19:47;;;;;;;173.73;161.15;;;;;;;;;;5056332;28;20024;-92
2021/01/29 12:22:18;;;;;;;183.52;170.85;;;;;;;;;;5050428;28;20025;-93
2021/01/29 12:24:47;;;;;;;177.43;164.93;;;;;;;;;;5049006;28;20067;-91
2021/01/29 12:27:21;;;;;;;177.68;165.05;;;;;;;;;;5044716;28;20066;-89
2021/01/29 12:30:08;;;;;;;179.07;166.02;;;;;;;;;;5038675;28;20037;-89
2021/01/29 12:32:34;;;;;;;174.93;162.43;;;;;;;;;;5043727;28;20026;-90
2021/01/29 12:35:09;;;;;;;176.07;163.40;;;;;;;;;;5035386;28;20075;-91
2021/01/29 12:37:39;;;;;;;182.77;170.02;;;;;;;;;;5052344;28;20117;-92
2021/01/29 12:40:07;;;;;;;186.02;172.82;;;;;;;;;;5039308;28;20044;-90
2021/01/29 12:42:54;;;;;;;183.23;169.90;;;;;;;;;;5052717;28;20018;-90
2021/01/29 12:45:25;;;;;;;194.55;180.63;;;;;;;;;;5054707;28;20018;-88
2021/01/29 12:48:06;;;;;;;188.80;174.77;;;;;;;;;;5054244;28;20069;-85
2021/01/29 12:50:31;;;;;;;181.50;168.35;;;;;;;;;;5054359;28;20032;-87
2021/01/29 12:53:02;;;;;;;174.93;162.23;;;;;;;;;;5056143;28;20026;-83
2021/01/29 12:55:35;;;;;;;186.75;173.15;;;;;;;;;;5063127;28;20017;-85
2021/01/29 12:58:03;;;;;;;184.25;170.57;;;;;;;;;;5051835;28;20014;-83
2021/01/29 13:00:37;;;;;;;188.38;174.23;;;;;;;;;;5053953;28;20017;-78
2021/01/29 13:03:18;;;;;;;189.55;175.45;;;;;;;;;;5059141;28;20036;-77
2021/01/29 13:05:45;;;;;;;191.85;177.45;;;;;;;;;;5048428;28;20048;-80
2021/01/29 13:08:16;;;;;;;190.15;175.85;;;;;;;;;;5059292;28;20093;-80
2021/01/29 13:10:52;;;;;;;187.93;173.93;;;;;;;;;;5052093;28;20041;-91
2021/01/29 13:13:17;;;;;;;;;;;;;;;;;;5057283;28;20084;-83
2021/01/29 13:15:46;;;;;;;190.73;176.35;;;;;;;;;;5047288;28;19910;-82
2021/01/29 13:18:17;;;;;;;180.88;167.07;;;;;;;;;;5052012;28;20076;-85
2021/01/29 13:20:45;;;;;;;188.38;174.23;;;;;;;;;;5067611;28;20097;-85
2021/01/29 13:23:16;;;;;;;189.18;174.98;;;;;;;;;;5044504;28;20021;-84
2021/01/29 13:25:52;;;;;;;195.85;181.05;;;;;;;;;;5055260;28;20020;-80
2021/01/29 13:28:19;;;;;;;194.60;180.07;;;;;;;;;;5044257;28;20018;-85
2021/01/29 13:30:44;;;;;;;193.45;179.15;;;;;;;;;;5071671;28;20044;-84
2021/01/29 13:33:11;;;;;;;203.43;188.23;;;;;;;;;;5045926;28;20048;-78
2021/01/29 13:35:38;;;;;;;196.02;181.32;;;;;;;;;;5045163;28;20031;-78
2021/01/29 13:38:23;;;;;;;196.35;181.82;;;;;;;;;;5045081;28;20088;-77
2021/01/29 13:40:50;;;;;;;211.00;195.30;;;;;;;;;;5044972;28;20034;-83
2021/01/29 13:43:19;;;;;;;204.40;189.05;;;;;;;;;;5041152;28;20033;-76
2021/01/29 13:45:45;;;;;;;198.80;183.32;;;;;;;;;;5018040;28;20060;-76
2021/01/29 13:48:19;;;;;;;195.15;180.07;;;;;;;;;;5019518;28;20458;-75
2021/01/29 13:50:46;;;;;;;195.20;180.18;;;;;;;;;;5020965;28;20040;-77
2021/01/29 13:53:32;;;;;;;201.20;185.93;;;;;;;;;;5023489;28;20032;-77
2021/01/29 13:55:57;;;;;;;203.75;188.20;;;;;;;;;;5024186;28;20563;-77
2021/01/29 13:58:22;;;;;;;201.38;185.93;;;;;;;;;;5029178;28;20071;-77
2021/01/29 14:00:57;;;;;;;200.35;184.85;;;;;;;;;;5023916;28;20029;-77
2021/01/29 14:03:28;;;;;;;205.50;189.38;;;;;;;;;;5023238;28;20505;-78
2021/01/29 14:05:54;;;;;;;209.18;192.93;;;;;;;;;;5025569;28;20044;-77
2021/01/29 14:08:19;;;;;;;203.18;187.73;;;;;;;;;;5031787;28;20034;-78
2021/01/29 14:10:50;;;;;;;208.85;193.02;;;;;;;;;;5032381;28;20032;-77
2021/01/29 14:13:25;;;;;;;206.90;191.32;;;;;;;;;;5019835;28;20026;-77
2021/01/29 14:15:56;;;;;;;210.68;194.57;;;;;;;;;;5024051;28;20232;-77
2021/01/29 14:18:37;;;;;;;214.65;198.32;;;;;;;;;;5037176;28;20087;-76
2021/01/29 14:21:08;;;;;;;222.57;205.70;;;;;;;;;;5027505;28;20044;-77
2021/01/29 14:23:38;;;;;;;224.43;207.35;;;;;;;;;;5046251;28;20608;-77
2021/01/29 14:26:08;;;;;;;220.93;203.98;;;;;;;;;;5026298;28;20029;-77
2021/01/29 14:28:45;;;;;;;208.43;192.27;;;;;;;;;;5032499;28;20029;-78
2021/01/29 14:31:29;;;;;;;205.95;190.15;;;;;;;;;;5025424;28;20033;-77
2021/01/29 14:33:54;;;;;;;208.35;192.38;;;;;;;;;;5027564;28;20041;-77
2021/01/29 14:36:34;;;;;;;207.63;192.00;;;;;;;;;;5026773;28;20740;-77
2021/01/29 14:39:19;;;;;;;219.07;202.52;;;;;;;;;;5022619;28;20029;-76
2021/01/29 14:41:58;;;;;;;221.18;203.13;;;;;;;;;;5026825;28;20029;-78
2021/01/29 14:44:44;;;;;;;232.88;215.38;;;;;;;;;;5033348;28;20073;-77
2021/01/29 14:47:09;;;;;;;221.50;204.50;;;;;;;;;;5007904;28;20136;-78